Terminal Aerodrome Forecast
Issued by NWS

Current Version | Previous Version | Text Only | Print | Product List | Glossary On
Versions: 1 2 3 4 5 6 7 8 9 10 11 12 13 14 15 16 17 18 19 20 21 22 23 24 25 26 27 28 29 30 31 32 33
000
FTUS45 KTWC 172300
TAFOLS
TAF
KOLS 172320Z 1800/1824 20013G22KT P6SM VCSH SCT030 BKN060
     FM180300 15005KT P6SM VCSH SCT040 BKN080
     FM180900 VRB03KT P6SM SCT050 BKN100
     FM181400 23010KT P6SM -SHRA BKN030 OVC060=

USA.gov is the U.S. government's official web portal to all federal, state and local government web resources and services.